sensor_id;sensor_type;location;lat;lon;timestamp;pressure;altitude;pressure_sealevel;temperature;humidity
64889;BME280;51386;53.082;8.816;2023-12-22T00:00:40;99162.22;;;9.00;61.17
64889;BME280;51386;53.082;8.816;2023-12-22T00:03:08;99174.94;;;9.03;60.97
64889;BME280;51386;53.082;8.816;2023-12-22T00:05:37;99174.75;;;9.05;60.63
64889;BME280;51386;53.082;8.816;2023-12-22T00:08:05;99161.19;;;9.01;60.52
64889;BME280;51386;53.082;8.816;2023-12-22T00:10:34;99172.72;;;9.00;60.71
64889;BME280;51386;53.082;8.816;2023-12-22T00:13:02;99153.75;;;8.98;60.89
64889;BME280;51386;53.082;8.816;2023-12-22T00:15:31;99173.13;;;8.97;60.79
64889;BME280;51386;53.082;8.816;2023-12-22T00:17:59;99176.34;;;8.99;60.93
64889;BME280;51386;53.082;8.816;2023-12-22T00:20:27;99181.59;;;8.99;60.41
64889;BME280;51386;53.082;8.816;2023-12-22T00:22:56;99181.59;;;8.99;60.90
64889;BME280;51386;53.082;8.816;2023-12-22T00:25:24;99183.41;;;8.99;60.70
64889;BME280;51386;53.082;8.816;2023-12-22T00:27:53;99182.03;;;8.96;60.67
64889;BME280;51386;53.082;8.816;2023-12-22T00:30:21;99181.38;;;8.94;60.48
64889;BME280;51386;53.082;8.816;2023-12-22T00:32:49;99186.84;;;8.93;60.19
64889;BME280;51386;53.082;8.816;2023-12-22T00:35:18;99189.69;;;8.91;60.10
64889;BME280;51386;53.082;8.816;2023-12-22T00:37:46;99199.53;;;8.89;59.99
64889;BME280;51386;53.082;8.816;2023-12-22T00:40:15;99200.56;;;8.88;59.57
64889;BME280;51386;53.082;8.816;2023-12-22T00:42:44;99192.09;;;8.86;59.58
64889;BME280;51386;53.082;8.816;2023-12-22T00:45:12;99194.13;;;8.84;59.27
64889;BME280;51386;53.082;8.816;2023-12-22T00:47:40;99206.63;;;8.82;59.70
64889;BME280;51386;53.082;8.816;2023-12-22T00:50:09;99203.00;;;8.76;59.39
64889;BME280;51386;53.082;8.816;2023-12-22T00:52:37;99207.63;;;8.74;59.67
64889;BME280;51386;53.082;8.816;2023-12-22T00:55:06;99203.19;;;8.75;59.84
64889;BME280;51386;53.082;8.816;2023-12-22T00:57:34;99203.81;;;8.77;59.75
64889;BME280;51386;53.082;8.816;2023-12-22T01:00:03;99201.19;;;8.77;59.95
64889;BME280;51386;53.082;8.816;2023-12-22T01:02:33;99209.66;;;8.79;59.73
64889;BME280;51386;53.082;8.816;2023-12-22T01:05:02;99215.91;;;8.78;59.73
64889;BME280;51386;53.082;8.816;2023-12-22T01:07:30;99210.66;;;8.78;59.58
64889;BME280;51386;53.082;8.816;2023-12-22T01:09:59;99232.44;;;8.78;59.97
64889;BME280;51386;53.082;8.816;2023-12-22T01:12:30;99228.03;;;8.79;59.97
64889;BME280;51386;53.082;8.816;2023-12-22T01:14:58;99231.44;;;8.79;59.93
64889;BME280;51386;53.082;8.816;2023-12-22T01:17:27;99227.59;;;8.75;59.76
64889;BME280;51386;53.082;8.816;2023-12-22T01:19:56;99211.47;;;8.72;60.46
64889;BME280;51386;53.082;8.816;2023-12-22T01:22:24;99220.72;;;8.68;60.55
64889;BME280;51386;53.082;8.816;2023-12-22T01:24:53;99232.03;;;8.62;60.46
64889;BME280;51386;53.082;8.816;2023-12-22T01:27:21;99236.06;;;8.58;60.79
64889;BME280;51386;53.082;8.816;2023-12-22T01:29:49;99240.50;;;8.57;61.02
64889;BME280;51386;53.082;8.816;2023-12-22T01:32:18;99248.16;;;8.59;61.07
64889;BME280;51386;53.082;8.816;2023-12-22T01:34:47;99252.19;;;8.61;60.96
64889;BME280;51386;53.082;8.816;2023-12-22T01:37:15;99256.44;;;8.62;61.20
64889;BME280;51386;53.082;8.816;2023-12-22T01:39:44;99262.47;;;8.63;61.00
64889;BME280;51386;53.082;8.816;2023-12-22T01:42:12;99242.50;;;8.62;61.04
64889;BME280;51386;53.082;8.816;2023-12-22T01:44:40;99250.97;;;8.64;61.04
64889;BME280;51386;53.082;8.816;2023-12-22T01:47:09;99262.28;;;8.64;61.07
64889;BME280;51386;53.082;8.816;2023-12-22T01:49:38;99257.84;;;8.65;60.84
64889;BME280;51386;53.082;8.816;2023-12-22T01:52:07;99262.28;;;8.64;61.19
64889;BME280;51386;53.082;8.816;2023-12-22T01:54:35;99267.94;;;8.68;61.26
64889;BME280;51386;53.082;8.816;2023-12-22T01:57:04;99276.22;;;8.71;60.75
64889;BME280;51386;53.082;8.816;2023-12-22T01:59:34;99276.81;;;8.73;60.92
64889;BME280;51386;53.082;8.816;2023-12-22T02:02:03;99281.47;;;8.78;60.88
64889;BME280;51386;53.082;8.816;2023-12-22T02:04:31;99274.81;;;8.82;60.67
64889;BME280;51386;53.082;8.816;2023-12-22T02:07:02;99276.44;;;8.83;60.34
64889;BME280;51386;53.082;8.816;2023-12-22T02:09:31;99280.06;;;8.82;59.86
64889;BME280;51386;53.082;8.816;2023-12-22T02:11:59;99265.53;;;8.79;59.73
64889;BME280;51386;53.082;8.816;2023-12-22T02:14:28;99258.25;;;8.75;58.67
64889;BME280;51386;53.082;8.816;2023-12-22T02:17:14;99262.69;;;8.68;58.80
64889;BME280;51386;53.082;8.816;2023-12-22T02:19:50;99247.75;;;8.62;59.18
64889;BME280;51386;53.082;8.816;2023-12-22T02:22:19;99256.00;;;8.59;58.83
64889;BME280;51386;53.082;8.816;2023-12-22T02:24:47;99259.03;;;8.56;59.32
64889;BME280;51386;53.082;8.816;2023-12-22T02:27:44;99270.53;;;8.55;59.07
64889;BME280;51386;53.082;8.816;2023-12-22T02:33:55;99300.34;;;8.47;60.43
64889;BME280;51386;53.082;8.816;2023-12-22T02:36:27;99261.63;;;8.43;60.84
64889;BME280;51386;53.082;8.816;2023-12-22T02:38:58;99266.63;;;8.38;60.83
64889;BME280;51386;53.082;8.816;2023-12-22T02:41:28;99263.41;;;8.36;61.21
64889;BME280;51386;53.082;8.816;2023-12-22T02:43:56;99263.81;;;8.33;61.36
64889;BME280;51386;53.082;8.816;2023-12-22T02:46:25;99253.69;;;8.30;61.73
64889;BME280;51386;53.082;8.816;2023-12-22T02:48:53;99260.94;;;8.28;61.53
64889;BME280;51386;53.082;8.816;2023-12-22T02:51:22;99263.97;;;8.25;62.23
64889;BME280;51386;53.082;8.816;2023-12-22T02:53:50;99270.56;;;8.20;62.41
64889;BME280;51386;53.082;8.816;2023-12-22T02:56:18;99267.34;;;8.18;62.24
64889;BME280;51386;53.082;8.816;2023-12-22T02:58:47;99259.88;;;8.15;62.22
64889;BME280;51386;53.082;8.816;2023-12-22T03:01:16;99259.25;;;8.13;62.17
64889;BME280;51386;53.082;8.816;2023-12-22T03:03:44;99268.13;;;8.12;62.25
64889;BME280;51386;53.082;8.816;2023-12-22T03:06:12;99277.00;;;8.11;61.97
64889;BME280;51386;53.082;8.816;2023-12-22T03:08:41;99264.91;;;8.10;61.93
64889;BME280;51386;53.082;8.816;2023-12-22T03:11:09;99253.63;;;8.10;62.08
64889;BME280;51386;53.082;8.816;2023-12-22T03:13:38;99260.06;;;8.07;61.94
64889;BME280;51386;53.082;8.816;2023-12-22T03:16:09;99261.66;;;8.08;62.02
64889;BME280;51386;53.082;8.816;2023-12-22T03:18:38;99238.72;;;8.10;62.01
64889;BME280;51386;53.082;8.816;2023-12-22T03:21:07;99239.94;;;8.14;61.96
64889;BME280;51386;53.082;8.816;2023-12-22T03:23:35;99233.88;;;8.20;61.51
64889;BME280;51386;53.082;8.816;2023-12-22T03:26:04;99246.03;;;8.28;61.55
64889;BME280;51386;53.082;8.816;2023-12-22T03:28:32;99242.44;;;8.36;61.24
64889;BME280;51386;53.082;8.816;2023-12-22T03:31:02;99259.59;;;8.45;60.81
64889;BME280;51386;53.082;8.816;2023-12-22T03:33:30;99237.22;;;8.49;60.57
64889;BME280;51386;53.082;8.816;2023-12-22T03:35:59;99264.25;;;8.49;60.99
64889;BME280;51386;53.082;8.816;2023-12-22T03:38:27;99269.09;;;8.46;61.31
64889;BME280;51386;53.082;8.816;2023-12-22T03:40:56;99263.25;;;8.44;61.46
64889;BME280;51386;53.082;8.816;2023-12-22T03:43:24;99268.88;;;8.41;61.69
64889;BME280;51386;53.082;8.816;2023-12-22T03:45:53;99252.13;;;8.35;61.55
64889;BME280;51386;53.082;8.816;2023-12-22T03:48:21;99258.16;;;8.29;61.78
64889;BME280;51386;53.082;8.816;2023-12-22T03:51:02;99260.69;;;8.23;61.69
64889;BME280;51386;53.082;8.816;2023-12-22T03:53:30;99258.88;;;8.16;61.97
64889;BME280;51386;53.082;8.816;2023-12-22T03:55:59;99262.91;;;8.12;61.96
64889;BME280;51386;53.082;8.816;2023-12-22T03:58:27;99242.31;;;8.09;61.92
64889;BME280;51386;53.082;8.816;2023-12-22T04:00:58;99235.88;;;8.05;62.06
64889;BME280;51386;53.082;8.816;2023-12-22T04:03:26;99229.97;;;8.03;61.99
64889;BME280;51386;53.082;8.816;2023-12-22T04:05:54;99239.84;;;8.01;61.75
64889;BME280;51386;53.082;8.816;2023-12-22T04:08:23;99221.50;;;8.01;61.67
64889;BME280;51386;53.082;8.816;2023-12-22T04:10:51;99218.50;;;8.04;61.56
64889;BME280;51386;53.082;8.816;2023-12-22T04:13:20;99219.56;;;8.10;61.42
64889;BME280;51386;53.082;8.816;2023-12-22T04:15:48;99220.56;;;8.15;61.65
64889;BME280;51386;53.082;8.816;2023-12-22T04:18:16;99232.69;;;8.23;61.48
64889;BME280;51386;53.082;8.816;2023-12-22T04:20:45;99236.97;;;8.31;61.02
64889;BME280;51386;53.082;8.816;2023-12-22T04:23:13;99256.16;;;8.38;60.79
64889;BME280;51386;53.082;8.816;2023-12-22T04:25:42;99263.03;;;8.45;60.78
64889;BME280;51386;53.082;8.816;2023-12-22T04:28:10;99276.00;;;8.53;60.79
64889;BME280;51386;53.082;8.816;2023-12-22T04:30:38;99245.72;;;8.57;60.26
64889;BME280;51386;53.082;8.816;2023-12-22T04:33:07;99255.63;;;8.62;60.38
64889;BME280;51386;53.082;8.816;2023-12-22T04:35:36;99266.31;;;8.67;60.14
64889;BME280;51386;53.082;8.816;2023-12-22T04:38:04;99270.16;;;8.71;60.26
64889;BME280;51386;53.082;8.816;2023-12-22T04:40:32;99282.88;;;8.74;60.17
64889;BME280;51386;53.082;8.816;2023-12-22T04:43:01;99277.03;;;8.72;60.46
64889;BME280;51386;53.082;8.816;2023-12-22T04:45:29;99289.94;;;8.67;60.65
64889;BME280;51386;53.082;8.816;2023-12-22T04:47:57;99265.50;;;8.60;61.12
64889;BME280;51386;53.082;8.816;2023-12-22T04:50:26;99266.28;;;8.54;61.46
64889;BME280;51386;53.082;8.816;2023-12-22T04:52:54;99277.75;;;8.46;61.61
64889;BME280;51386;53.082;8.816;2023-12-22T04:55:23;99255.16;;;8.39;61.47
64889;BME280;51386;53.082;8.816;2023-12-22T04:57:51;99240.44;;;8.38;61.81
64889;BME280;51386;53.082;8.816;2023-12-22T05:00:20;99244.25;;;8.35;62.10
64889;BME280;51386;53.082;8.816;2023-12-22T05:02:48;99262.19;;;8.32;62.11
64889;BME280;51386;53.082;8.816;2023-12-22T05:05:17;99246.84;;;8.29;62.09
64889;BME280;51386;53.082;8.816;2023-12-22T05:07:45;99257.34;;;8.29;62.06
64889;BME280;51386;53.082;8.816;2023-12-22T05:10:14;99275.09;;;8.33;62.31
64889;BME280;51386;53.082;8.816;2023-12-22T05:12:42;99266.63;;;8.38;62.00
64889;BME280;51386;53.082;8.816;2023-12-22T05:15:11;99285.59;;;8.40;62.11
64889;BME280;51386;53.082;8.816;2023-12-22T05:17:39;99269.06;;;8.39;61.66
64889;BME280;51386;53.082;8.816;2023-12-22T05:20:09;99269.88;;;8.40;61.34
64889;BME280;51386;53.082;8.816;2023-12-22T05:22:37;99278.34;;;8.42;60.97
64889;BME280;51386;53.082;8.816;2023-12-22T05:25:07;99277.97;;;8.45;60.75
64889;BME280;51386;53.082;8.816;2023-12-22T05:27:37;99282.81;;;8.48;60.39
64889;BME280;51386;53.082;8.816;2023-12-22T05:30:07;99279.59;;;8.52;60.04
64889;BME280;51386;53.082;8.816;2023-12-22T05:32:36;99275.78;;;8.55;59.25
64889;BME280;51386;53.082;8.816;2023-12-22T05:35:05;99290.47;;;8.56;59.35
64889;BME280;51386;53.082;8.816;2023-12-22T05:37:34;99281.63;;;8.57;59.30
64889;BME280;51386;53.082;8.816;2023-12-22T05:40:03;99280.00;;;8.56;59.28
64889;BME280;51386;53.082;8.816;2023-12-22T05:42:31;99280.81;;;8.56;59.02
64889;BME280;51386;53.082;8.816;2023-12-22T05:45:00;99283.25;;;8.58;59.49
64889;BME280;51386;53.082;8.816;2023-12-22T05:47:28;99281.25;;;8.60;59.36
64889;BME280;51386;53.082;8.816;2023-12-22T05:49:57;99302.22;;;8.60;59.33
64889;BME280;51386;53.082;8.816;2023-12-22T05:52:26;99288.50;;;8.58;59.14
64889;BME280;51386;53.082;8.816;2023-12-22T05:54:54;99305.59;;;8.54;59.25
64889;BME280;51386;53.082;8.816;2023-12-22T05:57:25;99314.28;;;8.48;59.25
64889;BME280;51386;53.082;8.816;2023-12-22T05:59:54;99329.97;;;8.41;59.31
64889;BME280;51386;53.082;8.816;2023-12-22T06:02:22;99334.19;;;8.36;59.46
64889;BME280;51386;53.082;8.816;2023-12-22T06:04:50;99334.56;;;8.33;59.35
64889;BME280;51386;53.082;8.816;2023-12-22T06:07:19;99333.97;;;8.31;59.49
64889;BME280;51386;53.082;8.816;2023-12-22T06:09:47;99344.25;;;8.32;59.56
64889;BME280;51386;53.082;8.816;2023-12-22T06:12:16;99348.09;;;8.36;59.51
64889;BME280;51386;53.082;8.816;2023-12-22T06:14:44;99361.25;;;8.43;59.57
64889;BME280;51386;53.082;8.816;2023-12-22T06:17:12;99368.31;;;8.49;59.85
64889;BME280;51386;53.082;8.816;2023-12-22T06:19:41;99369.75;;;8.51;60.21
64889;BME280;51386;53.082;8.816;2023-12-22T06:22:09;99375.19;;;8.50;60.07
64889;BME280;51386;53.082;8.816;2023-12-22T06:24:37;99369.50;;;8.46;60.38
64889;BME280;51386;53.082;8.816;2023-12-22T06:27:06;99389.25;;;8.42;60.53
64889;BME280;51386;53.082;8.816;2023-12-22T06:29:34;99384.41;;;8.39;60.33
64889;BME280;51386;53.082;8.816;2023-12-22T06:32:03;99383.59;;;8.39;60.46
64889;BME280;51386;53.082;8.816;2023-12-22T06:34:34;99394.72;;;8.41;60.78
64889;BME280;51386;53.082;8.816;2023-12-22T06:37:02;99393.69;;;8.42;60.75
64889;BME280;51386;53.082;8.816;2023-12-22T06:39:31;99397.31;;;8.41;61.04
64889;BME280;51386;53.082;8.816;2023-12-22T06:41:59;99392.09;;;8.41;61.58
64889;BME280;51386;53.082;8.816;2023-12-22T06:44:27;99378.78;;;8.42;61.37
64889;BME280;51386;53.082;8.816;2023-12-22T06:46:56;99371.94;;;8.41;61.74
64889;BME280;51386;53.082;8.816;2023-12-22T06:49:24;99385.63;;;8.37;61.70
64889;BME280;51386;53.082;8.816;2023-12-22T06:51:53;99388.78;;;8.32;61.98
64889;BME280;51386;53.082;8.816;2023-12-22T06:54:21;99398.88;;;8.29;61.80
64889;BME280;51386;53.082;8.816;2023-12-22T06:56:50;99399.84;;;8.28;62.09
64889;BME280;51386;53.082;8.816;2023-12-22T06:59:18;99408.53;;;8.28;62.03
64889;BME280;51386;53.082;8.816;2023-12-22T07:01:49;99409.75;;;8.32;62.30
64889;BME280;51386;53.082;8.816;2023-12-22T07:04:33;99421.06;;;8.33;62.33
64889;BME280;51386;53.082;8.816;2023-12-22T07:07:01;99435.59;;;8.35;62.68
64889;BME280;51386;53.082;8.816;2023-12-22T07:09:30;99438.03;;;8.37;62.77
64889;BME280;51386;53.082;8.816;2023-12-22T07:11:59;99436.22;;;8.37;63.00
64889;BME280;51386;53.082;8.816;2023-12-22T07:14:28;99435.59;;;8.35;63.11
64889;BME280;51386;53.082;8.816;2023-12-22T07:16:56;99428.31;;;8.31;63.37
64889;BME280;51386;53.082;8.816;2023-12-22T07:19:26;99444.78;;;8.25;63.40
64889;BME280;51386;53.082;8.816;2023-12-22T07:21:54;99448.78;;;8.20;63.62
64889;BME280;51386;53.082;8.816;2023-12-22T07:24:22;99455.03;;;8.19;63.65
64889;BME280;51386;53.082;8.816;2023-12-22T07:26:51;99469.38;;;8.24;64.09
64889;BME280;51386;53.082;8.816;2023-12-22T07:29:21;99473.84;;;8.30;64.04
64889;BME280;51386;53.082;8.816;2023-12-22T07:31:50;99475.72;;;8.36;63.81
64889;BME280;51386;53.082;8.816;2023-12-22T07:34:19;99484.81;;;8.40;63.69
64889;BME280;51386;53.082;8.816;2023-12-22T07:36:49;99482.03;;;8.41;63.72
64889;BME280;51386;53.082;8.816;2023-12-22T07:39:32;99484.44;;;8.43;63.47
64889;BME280;51386;53.082;8.816;2023-12-22T07:42:00;99494.56;;;8.46;63.72
64889;BME280;51386;53.082;8.816;2023-12-22T07:44:29;99483.06;;;8.47;63.73
64889;BME280;51386;53.082;8.816;2023-12-22T07:46:59;99474.19;;;8.48;63.28
64889;BME280;51386;53.082;8.816;2023-12-22T07:49:30;99465.53;;;8.47;63.44
64889;BME280;51386;53.082;8.816;2023-12-22T07:51:59;99468.34;;;8.46;63.36
64889;BME280;51386;53.082;8.816;2023-12-22T07:54:30;99463.09;;;8.46;62.87
64889;BME280;51386;53.082;8.816;2023-12-22T07:56:58;99456.22;;;8.45;62.60
64889;BME280;51386;53.082;8.816;2023-12-22T07:59:26;99455.25;;;8.46;62.65
64889;BME280;51386;53.082;8.816;2023-12-22T08:01:58;99454.22;;;8.47;62.58
64889;BME280;51386;53.082;8.816;2023-12-22T08:04:27;99462.69;;;8.49;62.28
64889;BME280;51386;53.082;8.816;2023-12-22T08:06:56;99477.88;;;8.53;62.50
64889;BME280;51386;53.082;8.816;2023-12-22T08:09:24;99488.16;;;8.55;62.38
64889;BME280;51386;53.082;8.816;2023-12-22T08:11:52;99490.41;;;8.58;62.16
64889;BME280;51386;53.082;8.816;2023-12-22T08:14:21;99484.59;;;8.62;61.94
64889;BME280;51386;53.082;8.816;2023-12-22T08:16:49;99497.34;;;8.72;61.96
64889;BME280;51386;53.082;8.816;2023-12-22T08:19:18;99503.69;;;8.84;61.83
64889;BME280;51386;53.082;8.816;2023-12-22T08:21:47;99499.28;;;8.91;61.26
64889;BME280;51386;53.082;8.816;2023-12-22T08:24:17;99489.19;;;8.95;61.21
64889;BME280;51386;53.082;8.816;2023-12-22T08:26:50;99493.84;;;8.99;60.32
64889;BME280;51386;53.082;8.816;2023-12-22T08:29:19;99500.34;;;9.03;59.58
64889;BME280;51386;53.082;8.816;2023-12-22T08:31:47;99500.97;;;9.12;59.28
64889;BME280;51386;53.082;8.816;2023-12-22T08:34:16;99519.59;;;9.23;58.79
64889;BME280;51386;53.082;8.816;2023-12-22T08:36:44;99524.88;;;9.30;58.80
64889;BME280;51386;53.082;8.816;2023-12-22T08:39:13;99515.19;;;9.30;59.79
64889;BME280;51386;53.082;8.816;2023-12-22T08:41:42;99507.06;;;9.25;59.59
64889;BME280;51386;53.082;8.816;2023-12-22T08:44:11;99523.22;;;9.22;59.92
64889;BME280;51386;53.082;8.816;2023-12-22T08:46:42;99523.22;;;9.22;59.97
64889;BME280;51386;53.082;8.816;2023-12-22T08:49:11;99511.94;;;9.22;60.39
64889;BME280;51386;53.082;8.816;2023-12-22T08:51:39;99514.72;;;9.20;60.44
64889;BME280;51386;53.082;8.816;2023-12-22T08:54:09;99515.94;;;9.18;60.67
64889;BME280;51386;53.082;8.816;2023-12-22T08:56:37;99528.88;;;9.19;60.85
64889;BME280;51386;53.082;8.816;2023-12-22T08:59:05;99526.84;;;9.21;60.83
64889;BME280;51386;53.082;8.816;2023-12-22T09:01:36;99520.19;;;9.25;60.75
64889;BME280;51386;53.082;8.816;2023-12-22T09:04:05;99539.19;;;9.27;60.75
64889;BME280;51386;53.082;8.816;2023-12-22T09:06:35;99536.19;;;9.30;60.71
64889;BME280;51386;53.082;8.816;2023-12-22T09:09:04;99526.91;;;9.34;60.96
64889;BME280;51386;53.082;8.816;2023-12-22T09:11:32;99537.00;;;9.37;59.95
64889;BME280;51386;53.082;8.816;2023-12-22T09:14:01;99556.22;;;9.38;59.63
64889;BME280;51386;53.082;8.816;2023-12-22T09:16:29;99555.41;;;9.37;59.77
64889;BME280;51386;53.082;8.816;2023-12-22T09:18:58;99549.16;;;9.38;59.57
64889;BME280;51386;53.082;8.816;2023-12-22T09:21:26;99528.94;;;9.39;59.50
64889;BME280;51386;53.082;8.816;2023-12-22T09:23:54;99522.47;;;9.41;59.31
64889;BME280;51386;53.082;8.816;2023-12-22T09:26:23;99540.69;;;9.49;59.17
64889;BME280;51386;53.082;8.816;2023-12-22T09:28:53;99556.06;;;9.52;59.11
64889;BME280;51386;53.082;8.816;2023-12-22T09:31:22;99558.91;;;9.58;58.65
64889;BME280;51386;53.082;8.816;2023-12-22T09:33:51;99571.84;;;9.59;58.64
64889;BME280;51386;53.082;8.816;2023-12-22T09:36:19;99574.47;;;9.59;58.58
64889;BME280;51386;53.082;8.816;2023-12-22T09:38:48;99569.00;;;9.61;58.48
64889;BME280;51386;53.082;8.816;2023-12-22T09:41:16;99581.16;;;9.62;58.45
64889;BME280;51386;53.082;8.816;2023-12-22T09:43:49;99560.13;;;9.62;58.43
64889;BME280;51386;53.082;8.816;2023-12-22T09:46:21;99567.03;;;9.63;58.45
64889;BME280;51386;53.082;8.816;2023-12-22T09:48:52;99554.50;;;9.65;58.63
64889;BME280;51386;53.082;8.816;2023-12-22T09:51:21;99575.09;;;9.68;58.58
64889;BME280;51386;53.082;8.816;2023-12-22T09:53:50;99567.84;;;9.70;58.91
64889;BME280;51386;53.082;8.816;2023-12-22T09:56:21;99556.94;;;9.73;58.60
64889;BME280;51386;53.082;8.816;2023-12-22T09:58:55;99565.84;;;9.72;58.69
64889;BME280;51386;53.082;8.816;2023-12-22T10:01:28;99577.94;;;9.73;58.78
64889;BME280;51386;53.082;8.816;2023-12-22T10:03:56;99573.13;;;9.76;58.99
64889;BME280;51386;53.082;8.816;2023-12-22T10:06:25;99579.19;;;9.77;58.87
64889;BME280;51386;53.082;8.816;2023-12-22T10:08:55;99586.44;;;9.75;59.04
64889;BME280;51386;53.082;8.816;2023-12-22T10:11:25;99578.38;;;9.70;59.04
64889;BME280;51386;53.082;8.816;2023-12-22T10:13:55;99578.75;;;9.67;59.30
64889;BME280;51386;53.082;8.816;2023-12-22T10:16:23;99569.00;;;9.61;59.80
64889;BME280;51386;53.082;8.816;2023-12-22T10:18:53;99588.81;;;9.57;59.78
64889;BME280;51386;53.082;8.816;2023-12-22T10:21:22;99608.59;;;9.52;60.28
64889;BME280;51386;53.082;8.816;2023-12-22T10:23:50;99602.09;;;9.48;60.53
64889;BME280;51386;53.082;8.816;2023-12-22T10:26:19;99596.22;;;9.46;60.44
64889;BME280;51386;53.082;8.816;2023-12-22T10:28:48;99592.22;;;9.50;60.84
64889;BME280;51386;53.082;8.816;2023-12-22T10:31:19;99592.84;;;9.52;61.17
64889;BME280;51386;53.082;8.816;2023-12-22T10:33:48;99593.00;;;9.51;61.13
64889;BME280;51386;53.082;8.816;2023-12-22T10:36:17;99607.34;;;9.48;61.25
64889;BME280;51386;53.082;8.816;2023-12-22T10:38:46;99599.88;;;9.45;61.23
64889;BME280;51386;53.082;8.816;2023-12-22T10:41:14;99596.66;;;9.43;61.28
64889;BME280;51386;53.082;8.816;2023-12-22T10:43:43;99600.88;;;9.44;61.61
64889;BME280;51386;53.082;8.816;2023-12-22T10:46:12;99591.59;;;9.48;61.72
64889;BME280;51386;53.082;8.816;2023-12-22T10:48:41;99597.66;;;9.49;61.71
64889;BME280;51386;53.082;8.816;2023-12-22T10:51:10;99591.59;;;9.48;61.47
64889;BME280;51386;53.082;8.816;2023-12-22T10:53:42;99582.72;;;9.49;61.85
64889;BME280;51386;53.082;8.816;2023-12-22T10:56:11;99581.09;;;9.48;61.80
64889;BME280;51386;53.082;8.816;2023-12-22T10:58:42;99574.63;;;9.51;62.27
64889;BME280;51386;53.082;8.816;2023-12-22T11:01:14;99576.66;;;9.55;62.15
64889;BME280;51386;53.082;8.816;2023-12-22T11:03:47;99568.25;;;9.67;62.21
64889;BME280;51386;53.082;8.816;2023-12-22T11:06:20;99567.03;;;9.76;61.87
64889;BME280;51386;53.082;8.816;2023-12-22T11:08:52;99565.03;;;9.78;61.73
64889;BME280;51386;53.082;8.816;2023-12-22T11:11:28;99565.84;;;9.78;61.73
64889;BME280;51386;53.082;8.816;2023-12-22T11:14:00;99552.09;;;9.83;62.15
64889;BME280;51386;53.082;8.816;2023-12-22T11:16:31;99558.56;;;9.87;62.02
64889;BME280;51386;53.082;8.816;2023-12-22T11:19:03;99561.84;;;9.89;62.01
64889;BME280;51386;53.082;8.816;2023-12-22T11:21:31;99557.78;;;9.93;61.95
64889;BME280;51386;53.082;8.816;2023-12-22T11:24:02;99555.38;;;9.98;61.92
64889;BME280;51386;53.082;8.816;2023-12-22T11:26:32;99567.72;;;10.04;62.13
64889;BME280;51386;53.082;8.816;2023-12-22T11:29:02;99548.53;;;10.10;62.11
64889;BME280;51386;53.082;8.816;2023-12-22T11:31:32;99552.19;;;10.15;62.19
64889;BME280;51386;53.082;8.816;2023-12-22T11:34:02;99549.38;;;10.17;62.27
64889;BME280;51386;53.082;8.816;2023-12-22T11:36:40;99547.34;;;10.19;62.22
64889;BME280;51386;53.082;8.816;2023-12-22T11:39:09;99534.19;;;10.19;62.48
64889;BME280;51386;53.082;8.816;2023-12-22T11:41:39;99520.03;;;10.20;62.37
64889;BME280;51386;53.082;8.816;2023-12-22T11:44:09;99524.50;;;10.26;62.28
64889;BME280;51386;53.082;8.816;2023-12-22T11:46:37;99528.72;;;10.27;62.54
64889;BME280;51386;53.082;8.816;2023-12-22T11:49:06;99521.03;;;10.32;62.52
64889;BME280;51386;53.082;8.816;2023-12-22T11:51:35;99523.88;;;10.37;62.71
64889;BME280;51386;53.082;8.816;2023-12-22T11:54:03;99512.97;;;10.40;62.54
64889;BME280;51386;53.082;8.816;2023-12-22T11:56:34;99508.91;;;10.44;62.51
64889;BME280;51386;53.082;8.816;2023-12-22T11:59:16;99506.88;;;10.46;62.57
64889;BME280;51386;53.082;8.816;2023-12-22T12:02:08;99501.22;;;10.49;62.60
64889;BME280;51386;53.082;8.816;2023-12-22T12:04:40;99507.28;;;10.50;62.51
64889;BME280;51386;53.082;8.816;2023-12-22T12:07:47;99519.41;;;10.44;62.80
64889;BME280;51386;53.082;8.816;2023-12-22T12:13:23;99505.44;;;10.44;62.75
64889;BME280;51386;53.082;8.816;2023-12-22T12:15:58;99500.81;;;10.46;62.69
64889;BME280;51386;53.082;8.816;2023-12-22T12:18:31;99497.16;;;10.47;62.71
64889;BME280;51386;53.082;8.816;2023-12-22T12:21:02;99497.16;;;10.47;62.70
64889;BME280;51386;53.082;8.816;2023-12-22T12:23:38;99487.84;;;10.44;62.73
64889;BME280;51386;53.082;8.816;2023-12-22T12:26:11;99477.34;;;10.44;62.72
64889;BME280;51386;53.082;8.816;2023-12-22T12:28:45;99487.84;;;10.44;62.66
64889;BME280;51386;53.082;8.816;2023-12-22T12:31:15;99492.94;;;10.46;62.57
64889;BME280;51386;53.082;8.816;2023-12-22T12:33:45;99496.16;;;10.48;62.65
64889;BME280;51386;53.082;8.816;2023-12-22T12:36:15;99500.38;;;10.49;62.38
64889;BME280;51386;53.082;8.816;2023-12-22T12:39:06;99480.56;;;10.46;62.52
64889;BME280;51386;53.082;8.816;2023-12-22T12:41:43;99498.56;;;10.49;62.45
64889;BME280;51386;53.082;8.816;2023-12-22T12:44:12;99493.91;;;10.51;62.40
64889;BME280;51386;53.082;8.816;2023-12-22T12:46:42;99483.38;;;10.51;62.31
64889;BME280;51386;53.082;8.816;2023-12-22T12:49:12;99498.19;;;10.52;62.14
64889;BME280;51386;53.082;8.816;2023-12-22T12:51:49;99500.81;;;10.52;62.26
64889;BME280;51386;53.082;8.816;2023-12-22T12:54:18;99480.56;;;10.53;62.43
64889;BME280;51386;53.082;8.816;2023-12-22T12:56:46;99484.63;;;10.55;62.26
64889;BME280;51386;53.082;8.816;2023-12-22T12:59:17;99480.97;;;10.56;62.21
64889;BME280;51386;53.082;8.816;2023-12-22T13:01:48;99474.88;;;10.56;62.27
64889;BME280;51386;53.082;8.816;2023-12-22T13:04:17;99480.97;;;10.56;62.36
64889;BME280;51386;53.082;8.816;2023-12-22T13:06:49;99490.25;;;10.59;62.04
64889;BME280;51386;53.082;8.816;2023-12-22T13:09:19;99475.28;;;10.59;62.10
64889;BME280;51386;53.082;8.816;2023-12-22T13:11:47;99469.00;;;10.60;62.05
64889;BME280;51386;53.082;8.816;2023-12-22T13:14:23;99453.03;;;10.62;62.11
64889;BME280;51386;53.082;8.816;2023-12-22T13:16:55;99458.66;;;10.65;62.13
64889;BME280;51386;53.082;8.816;2023-12-22T13:19:26;99451.38;;;10.67;62.07
64889;BME280;51386;53.082;8.816;2023-12-22T13:21:56;99445.94;;;10.69;62.15
64889;BME280;51386;53.082;8.816;2023-12-22T13:24:24;99442.47;;;10.68;61.82
64889;BME280;51386;53.082;8.816;2023-12-22T13:27:03;99439.84;;;10.68;61.88
64889;BME280;51386;53.082;8.816;2023-12-22T13:29:45;99439.25;;;10.66;61.82